createdAt,value
2023-03-28T00:01:26.408Z,99.90
2023-03-28T00:04:14.445Z,99.90
2023-03-28T00:07:02.546Z,99.90
2023-03-28T00:09:51.279Z,99.90
2023-03-28T00:12:40.842Z,99.90
2023-03-28T00:15:28.849Z,99.90
2023-03-28T00:18:16.883Z,99.90
2023-03-28T00:21:07.669Z,99.90
2023-03-28T00:23:56.420Z,99.90
2023-03-28T00:26:45.625Z,99.90
2023-03-28T00:29:35.309Z,99.90
2023-03-28T00:32:23.376Z,99.90
2023-03-28T00:35:12.741Z,99.90
2023-03-28T00:38:00.716Z,99.90
2023-03-28T00:40:48.758Z,99.90
2023-03-28T00:43:39.080Z,99.90
2023-03-28T00:46:31.498Z,99.90
2023-03-28T00:49:21.727Z,99.90
2023-03-28T00:52:09.956Z,99.90
2023-03-28T00:54:58.702Z,99.90
2023-03-28T00:57:47.513Z,99.90
2023-03-28T01:00:35.964Z,99.90
2023-03-28T01:03:27.618Z,99.90
2023-03-28T01:06:16.426Z,99.90
2023-03-28T01:09:07.414Z,99.90
2023-03-28T01:11:57.195Z,99.90
2023-03-28T01:14:46.537Z,99.90
2023-03-28T01:17:35.350Z,99.90
2023-03-28T01:20:35.985Z,99.90
2023-03-28T01:23:33.569Z,99.90
2023-03-28T01:26:39.233Z,99.90
2023-03-28T01:29:48.326Z,99.90
2023-03-28T01:32:54.418Z,99.90
2023-03-28T01:35:57.466Z,99.90
2023-03-28T01:38:49.399Z,99.90
2023-03-28T01:41:42.533Z,99.90
2023-03-28T01:44:33.059Z,99.90
2023-03-28T01:47:25.006Z,99.90
2023-03-28T01:50:18.363Z,99.90
2023-03-28T01:53:09.550Z,99.90
2023-03-28T01:56:01.851Z,99.90
2023-03-28T01:58:53.747Z,99.90
2023-03-28T02:01:46.690Z,99.90
2023-03-28T02:04:36.335Z,99.90
2023-03-28T02:07:25.696Z,99.90
2023-03-28T02:10:14.901Z,99.90
2023-03-28T02:13:06.082Z,99.90
2023-03-28T02:15:56.559Z,99.90
2023-03-28T02:18:47.574Z,99.90
2023-03-28T02:21:37.648Z,99.90
2023-03-28T02:24:26.290Z,99.90
2023-03-28T02:27:14.335Z,99.90
2023-03-28T02:30:03.866Z,99.90
2023-03-28T02:32:52.490Z,99.90
2023-03-28T02:35:47.871Z,99.90
2023-03-28T02:38:39.138Z,99.90
2023-03-28T02:41:33.453Z,99.90
2023-03-28T02:44:30.327Z,99.90
2023-03-28T02:47:21.968Z,99.90
2023-03-28T02:50:15.786Z,99.90
2023-03-28T02:53:05.267Z,99.90
2023-03-28T02:55:55.804Z,99.90
2023-03-28T02:58:47.350Z,99.90
2023-03-28T03:01:36.768Z,99.90
2023-03-28T03:04:26.245Z,99.90
2023-03-28T03:07:14.618Z,99.90
2023-03-28T03:10:02.669Z,99.90
2023-03-28T03:12:50.909Z,99.90
2023-03-28T03:15:41.329Z,99.90
2023-03-28T03:18:29.582Z,99.90
2023-03-28T03:21:18.991Z,99.90
2023-03-28T03:24:09.784Z,99.90
2023-03-28T03:26:57.885Z,99.90
2023-03-28T03:29:46.182Z,99.90
2023-03-28T03:32:34.266Z,99.90
2023-03-28T03:35:22.383Z,99.90
2023-03-28T03:38:11.737Z,99.90
2023-03-28T03:40:59.770Z,99.90
2023-03-28T03:43:47.783Z,99.90
2023-03-28T03:46:35.914Z,99.90
2023-03-28T03:49:23.955Z,99.90
2023-03-28T03:52:11.954Z,99.90
2023-03-28T03:55:01.366Z,99.90
2023-03-28T03:57:49.409Z,99.90
2023-03-28T04:00:37.676Z,99.90
2023-03-28T04:03:26.749Z,99.90
2023-03-28T04:06:14.798Z,99.90
2023-03-28T04:09:02.853Z,99.90
2023-03-28T04:11:52.236Z,99.90
2023-03-28T04:14:40.267Z,99.90
2023-03-28T04:17:28.795Z,99.90
2023-03-28T04:20:17.521Z,99.90
2023-03-28T04:23:08.432Z,99.90
2023-03-28T04:25:58.406Z,99.90
2023-03-28T04:28:48.583Z,99.90
2023-03-28T04:31:39.804Z,99.90
2023-03-28T04:34:30.705Z,99.90
2023-03-28T04:37:19.467Z,99.90
2023-03-28T04:40:10.646Z,99.90
2023-03-28T04:42:58.686Z,99.90
2023-03-28T04:45:48.088Z,99.90
2023-03-28T04:48:36.155Z,99.90
2023-03-28T04:51:25.188Z,99.90
2023-03-28T04:54:13.368Z,99.90
2023-03-28T04:57:02.453Z,99.90
2023-03-28T04:59:50.566Z,99.90
2023-03-28T05:02:40.028Z,99.90
2023-03-28T05:05:28.210Z,99.90
2023-03-28T05:08:18.050Z,99.90
2023-03-28T05:11:06.253Z,99.90
2023-03-28T05:13:54.302Z,99.90
2023-03-28T05:16:42.361Z,99.90
2023-03-28T05:19:31.820Z,99.90
2023-03-28T05:22:19.834Z,99.90
2023-03-28T05:25:08.372Z,99.90
2023-03-28T05:27:56.371Z,99.90
2023-03-28T05:30:44.456Z,99.90
2023-03-28T05:33:32.754Z,99.90
2023-03-28T05:36:22.326Z,99.90
2023-03-28T05:39:10.320Z,99.90
2023-03-28T05:41:58.365Z,99.90
2023-03-28T05:44:46.374Z,99.90
2023-03-28T05:47:34.486Z,99.90
2023-03-28T05:50:22.915Z,99.90
2023-03-28T05:53:12.304Z,99.90
2023-03-28T05:56:00.358Z,99.90
2023-03-28T05:58:49.241Z,99.90
2023-03-28T06:01:40.148Z,99.90
2023-03-28T06:04:29.492Z,99.90
2023-03-28T06:07:19.749Z,99.90
2023-03-28T06:10:13.475Z,99.90
2023-03-28T06:13:01.608Z,99.90
2023-03-28T06:15:49.675Z,99.90
2023-03-28T06:18:37.678Z,99.90
2023-03-28T06:21:25.781Z,99.90
2023-03-28T06:24:13.997Z,99.90
2023-03-28T06:27:03.547Z,99.90
2023-03-28T06:29:51.855Z,99.90
2023-03-28T06:32:39.935Z,99.90
2023-03-28T06:35:28.021Z,99.90
2023-03-28T06:38:16.102Z,99.90
2023-03-28T06:41:04.463Z,99.90
2023-03-28T06:43:53.869Z,99.90
2023-03-28T06:46:41.951Z,99.90
2023-03-28T06:49:30.021Z,99.90
2023-03-28T06:52:18.056Z,99.90
2023-03-28T06:55:06.467Z,99.90
2023-03-28T06:57:54.517Z,99.90
2023-03-28T07:00:44.093Z,99.90
2023-03-28T07:03:32.326Z,99.90
2023-03-28T07:06:20.420Z,99.90
2023-03-28T07:09:08.479Z,99.90
2023-03-28T07:11:56.587Z,99.90
2023-03-28T07:14:44.688Z,99.90
2023-03-28T07:17:34.070Z,99.90
2023-03-28T07:20:22.230Z,99.90
2023-03-28T07:23:10.417Z,99.90
2023-03-28T07:25:58.487Z,99.90
2023-03-28T07:28:46.592Z,99.90
2023-03-28T07:31:34.870Z,99.90
2023-03-28T07:34:24.268Z,99.90
2023-03-28T07:37:12.275Z,99.90
2023-03-28T07:40:00.521Z,99.90
2023-03-28T07:42:49.180Z,99.90
2023-03-28T07:45:37.364Z,99.90
2023-03-28T07:48:25.534Z,99.90
2023-03-28T07:51:15.017Z,99.90
2023-03-28T07:54:04.891Z,99.90
2023-03-28T07:56:54.349Z,99.90
2023-03-28T07:59:42.427Z,99.90
2023-03-28T08:02:30.535Z,99.90
2023-03-28T08:05:18.788Z,99.90
2023-03-28T08:08:09.047Z,99.90
2023-03-28T08:10:57.140Z,99.90
2023-03-28T08:13:45.288Z,99.90
2023-03-28T08:16:33.806Z,99.90
2023-03-28T08:19:21.984Z,99.90
2023-03-28T08:22:11.710Z,99.90
2023-03-28T08:25:01.107Z,99.90
2023-03-28T08:27:49.169Z,99.90
2023-03-28T08:30:37.351Z,99.90
2023-03-28T08:33:25.459Z,99.90
2023-03-28T08:36:14.954Z,99.90
2023-03-28T08:39:05.017Z,99.90
2023-03-28T08:42:00.689Z,99.90
2023-03-28T08:44:54.245Z,99.90
2023-03-28T08:47:47.572Z,99.90
2023-03-28T08:50:37.075Z,99.90
2023-03-28T08:53:27.530Z,99.90
2023-03-28T08:56:16.537Z,99.90
2023-03-28T08:59:07.410Z,99.90
2023-03-28T09:01:55.537Z,99.90
2023-03-28T09:04:43.597Z,99.90
2023-03-28T09:07:36.513Z,99.90
2023-03-28T09:10:28.502Z,99.90
2023-03-28T09:13:23.995Z,99.90
2023-03-28T09:16:26.591Z,99.90
2023-03-28T09:19:21.233Z,99.90
2023-03-28T09:22:15.960Z,99.90
2023-03-28T09:25:09.550Z,99.90
2023-03-28T09:28:01.846Z,99.90
2023-03-28T09:30:51.678Z,99.90
2023-03-28T09:33:43.094Z,99.90
2023-03-28T09:36:45.340Z,99.90
2023-03-28T09:39:36.889Z,99.90
2023-03-28T09:42:29.953Z,99.90
2023-03-28T09:45:26.653Z,99.90
2023-03-28T09:48:19.833Z,99.90
2023-03-28T09:51:15.830Z,99.90
2023-03-28T09:54:06.426Z,99.90
2023-03-28T09:56:54.660Z,99.90
2023-03-28T09:59:43.086Z,99.90
2023-03-28T10:02:32.522Z,99.90
2023-03-28T10:05:32.288Z,99.90
2023-03-28T10:08:24.302Z,99.90
2023-03-28T10:11:14.261Z,99.90
2023-03-28T10:14:06.092Z,99.90
2023-03-28T10:16:55.943Z,99.90
2023-03-28T10:19:45.016Z,99.90
2023-03-28T10:22:34.946Z,99.90
2023-03-28T10:25:32.967Z,99.90
2023-03-28T10:28:24.667Z,99.90
2023-03-28T10:31:22.090Z,99.90
2023-03-28T10:34:23.433Z,99.90
2023-03-28T10:37:24.414Z,99.90
2023-03-28T10:40:25.513Z,99.90
2023-03-28T10:43:14.291Z,99.90
2023-03-28T10:46:03.456Z,99.90
2023-03-28T10:48:53.185Z,99.90
2023-03-28T10:51:41.755Z,99.90
2023-03-28T10:54:42.857Z,99.90
2023-03-28T10:57:37.069Z,99.90
2023-03-28T11:00:27.271Z,99.90
2023-03-28T11:03:25.168Z,99.90
2023-03-28T11:06:16.461Z,99.90
2023-03-28T11:09:08.813Z,99.90
2023-03-28T11:12:02.860Z,99.90
2023-03-28T11:14:58.715Z,99.90
2023-03-28T11:17:52.507Z,99.90
2023-03-28T11:20:45.303Z,99.90
2023-03-28T11:23:38.956Z,99.90
2023-03-28T11:26:31.164Z,99.90
2023-03-28T11:29:33.351Z,99.90
2023-03-28T11:32:33.010Z,99.90
2023-03-28T11:35:26.504Z,99.90
2023-03-28T11:38:17.832Z,99.90
2023-03-28T11:41:09.878Z,99.90
2023-03-28T11:43:59.939Z,99.90
2023-03-28T11:46:52.061Z,99.90
2023-03-28T11:49:42.747Z,99.90
2023-03-28T11:52:35.615Z,99.90
2023-03-28T11:55:26.661Z,99.90
2023-03-28T11:58:18.457Z,99.90
2023-03-28T12:01:09.357Z,99.90
2023-03-28T12:04:02.334Z,99.90
2023-03-28T12:07:03.024Z,99.90
2023-03-28T12:09:57.540Z,99.90
2023-03-28T12:12:52.428Z,99.90
2023-03-28T12:15:44.106Z,99.90
2023-03-28T12:18:33.687Z,99.90
2023-03-28T12:21:24.814Z,99.90
2023-03-28T12:24:17.917Z,99.90
2023-03-28T12:27:09.650Z,99.90
2023-03-28T12:30:00.331Z,99.90
2023-03-28T12:32:51.932Z,99.90
2023-03-28T12:35:42.231Z,99.90
2023-03-28T12:38:32.689Z,99.90
2023-03-28T12:41:24.246Z,99.90
2023-03-28T12:44:14.771Z,99.90
2023-03-28T12:47:04.858Z,99.90
2023-03-28T12:49:55.161Z,99.90
2023-03-28T12:52:45.437Z,99.90
2023-03-28T12:55:42.901Z,99.90
2023-03-28T12:58:35.061Z,99.90
2023-03-28T13:01:33.749Z,99.90
2023-03-28T13:04:27.311Z,99.90
2023-03-28T13:07:18.509Z,99.90
2023-03-28T13:10:08.114Z,99.90
2023-03-28T13:13:02.262Z,99.90
2023-03-28T13:15:55.374Z,99.90
2023-03-28T13:18:47.011Z,99.90
2023-03-28T13:21:46.263Z,99.90
2023-03-28T13:24:36.041Z,99.90
2023-03-28T13:27:30.964Z,99.90
2023-03-28T13:30:20.170Z,99.90
2023-03-28T13:33:15.063Z,99.90
2023-03-28T13:36:30.028Z,99.90
2023-03-28T13:39:22.034Z,99.90
2023-03-28T13:42:26.508Z,99.90
2023-03-28T13:45:19.521Z,99.90
2023-03-28T13:48:13.162Z,99.90
2023-03-28T13:51:03.227Z,99.90
2023-03-28T13:53:51.418Z,99.90
2023-03-28T13:56:43.453Z,99.90
2023-03-28T13:59:35.833Z,99.90
2023-03-28T14:02:32.328Z,99.90
2023-03-28T14:05:22.516Z,99.90
2023-03-28T14:08:21.529Z,99.90
2023-03-28T14:11:11.221Z,99.90
2023-03-28T14:14:03.048Z,99.90
2023-03-28T14:16:51.708Z,99.90
2023-03-28T14:19:41.318Z,99.90
2023-03-28T14:22:32.136Z,99.90
2023-03-28T14:25:21.443Z,99.90
2023-03-28T14:28:09.686Z,99.90
2023-03-28T14:30:58.121Z,99.90
2023-03-28T14:33:47.877Z,99.90
2023-03-28T14:36:54.390Z,99.90
2023-03-28T14:39:43.891Z,99.90
2023-03-28T14:42:33.094Z,99.90
2023-03-28T14:45:22.632Z,99.90
2023-03-28T14:48:14.237Z,99.90
2023-03-28T14:51:04.028Z,99.90
2023-03-28T14:53:52.626Z,99.20
2023-03-28T14:56:42.189Z,98.60
2023-03-28T14:59:35.010Z,98.60
2023-03-28T15:02:25.567Z,99.30
2023-03-28T15:05:15.563Z,99.90
2023-03-28T15:08:04.698Z,99.90
2023-03-28T15:10:54.428Z,99.90
2023-03-28T15:13:45.247Z,99.20
2023-03-28T15:16:36.755Z,97.60
2023-03-28T15:19:27.185Z,97.00
2023-03-28T15:22:16.820Z,97.30
2023-03-28T15:25:05.130Z,97.00
2023-03-28T15:27:56.093Z,96.70
2023-03-28T15:30:46.374Z,97.70
2023-03-28T15:33:35.207Z,98.00
2023-03-28T15:36:24.604Z,97.40
2023-03-28T15:39:18.839Z,96.00
2023-03-28T15:42:28.625Z,95.10
2023-03-28T15:45:25.012Z,94.10
2023-03-28T15:48:19.799Z,94.10
2023-03-28T15:51:09.450Z,92.90
2023-03-28T15:53:58.916Z,92.60
2023-03-28T15:56:48.268Z,93.00
2023-03-28T15:59:39.306Z,93.20
2023-03-28T16:02:32.020Z,93.00
2023-03-28T16:05:34.412Z,93.50
2023-03-28T16:08:24.681Z,93.50
2023-03-28T16:11:15.856Z,94.10
2023-03-28T16:14:03.890Z,94.00
2023-03-28T16:16:53.814Z,93.40
2023-03-28T16:19:42.048Z,93.60
2023-03-28T16:22:31.620Z,93.90
2023-03-28T16:25:19.758Z,94.30
2023-03-28T16:28:07.874Z,94.90
2023-03-28T16:30:55.987Z,95.50
2023-03-28T16:33:44.039Z,95.70
2023-03-28T16:36:32.136Z,96.10
2023-03-28T16:39:21.539Z,96.10
2023-03-28T16:42:10.856Z,96.10
2023-03-28T16:44:59.916Z,97.00
2023-03-28T16:47:48.066Z,97.00
2023-03-28T16:50:37.006Z,96.90
2023-03-28T16:53:25.458Z,96.60
2023-03-28T16:56:15.438Z,96.80
2023-03-28T16:59:04.449Z,97.10
2023-03-28T17:01:52.921Z,98.80
2023-03-28T17:04:41.336Z,98.40
2023-03-28T17:07:29.386Z,98.90
2023-03-28T17:10:17.760Z,99.10
2023-03-28T17:13:07.239Z,99.30
2023-03-28T17:15:55.513Z,99.90
2023-03-28T17:18:43.583Z,99.90
2023-03-28T17:21:31.631Z,99.90
2023-03-28T17:24:21.425Z,99.90
2023-03-28T17:27:09.519Z,99.90
2023-03-28T17:29:58.906Z,99.90
2023-03-28T17:32:47.085Z,99.90
2023-03-28T17:35:35.467Z,99.90
2023-03-28T17:38:23.593Z,99.90
2023-03-28T17:41:11.949Z,99.90
2023-03-28T17:44:00.018Z,99.90
2023-03-28T17:46:49.519Z,99.90
2023-03-28T17:49:37.834Z,99.90
2023-03-28T17:52:27.071Z,99.90
2023-03-28T17:55:15.652Z,99.90
2023-03-28T17:58:03.719Z,99.90
2023-03-28T18:00:51.885Z,99.90
2023-03-28T18:03:41.626Z,99.90
2023-03-28T18:06:29.890Z,99.90
2023-03-28T18:09:17.922Z,99.90
2023-03-28T18:12:06.060Z,99.90
2023-03-28T18:14:54.106Z,99.90
2023-03-28T18:17:43.328Z,99.90
2023-03-28T18:20:32.787Z,99.90
2023-03-28T18:23:20.812Z,99.90
2023-03-28T18:26:09.499Z,99.90
2023-03-28T18:28:57.561Z,99.90
2023-03-28T18:31:46.135Z,99.90
2023-03-28T18:34:34.276Z,99.90
2023-03-28T18:37:23.701Z,99.90
2023-03-28T18:40:12.703Z,99.90
2023-03-28T18:43:00.737Z,99.90
2023-03-28T18:45:54.136Z,99.90
2023-03-28T18:48:42.527Z,99.90
2023-03-28T18:51:31.514Z,99.90
2023-03-28T18:54:21.070Z,99.90
2023-03-28T18:57:09.178Z,99.90
2023-03-28T18:59:57.253Z,99.90
2023-03-28T19:02:45.546Z,99.90
2023-03-28T19:05:34.172Z,99.90
2023-03-28T19:08:22.355Z,99.90
2023-03-28T19:11:13.170Z,99.90
2023-03-28T19:14:01.261Z,99.90
2023-03-28T19:16:49.386Z,99.90
2023-03-28T19:19:38.239Z,99.90
2023-03-28T19:22:26.303Z,99.90
2023-03-28T19:25:14.432Z,99.90
2023-03-28T19:28:03.818Z,99.90
2023-03-28T19:30:57.029Z,99.90
2023-03-28T19:33:45.694Z,99.90
2023-03-28T19:36:33.760Z,99.90
2023-03-28T19:39:21.929Z,99.90
2023-03-28T19:42:10.031Z,99.90
2023-03-28T19:44:59.477Z,99.90
2023-03-28T19:47:47.688Z,99.90
2023-03-28T19:50:36.660Z,99.90
2023-03-28T19:53:24.752Z,99.90
2023-03-28T19:56:14.008Z,99.90
2023-03-28T19:59:02.122Z,99.90
2023-03-28T20:01:51.573Z,99.90
2023-03-28T20:04:39.767Z,99.90
2023-03-28T20:07:27.827Z,99.90
2023-03-28T20:10:16.005Z,99.90
2023-03-28T20:13:04.032Z,99.90
2023-03-28T20:15:52.203Z,99.90
2023-03-28T20:18:41.841Z,99.90
2023-03-28T20:21:29.914Z,99.90
2023-03-28T20:24:18.658Z,99.90
2023-03-28T20:27:06.684Z,99.90
2023-03-28T20:29:54.669Z,99.90
2023-03-28T20:32:42.770Z,99.90
2023-03-28T20:35:32.144Z,99.90
2023-03-28T20:38:20.475Z,99.90
2023-03-28T20:41:12.021Z,99.90
2023-03-28T20:44:03.401Z,99.90
2023-03-28T20:46:52.042Z,99.90
2023-03-28T20:49:46.328Z,99.90
2023-03-28T20:52:37.340Z,99.90
2023-03-28T20:55:25.840Z,99.90
2023-03-28T20:58:13.838Z,99.90
2023-03-28T21:01:04.961Z,99.90
2023-03-28T21:03:54.477Z,99.90
2023-03-28T21:06:44.976Z,99.90
2023-03-28T21:09:34.383Z,99.90
2023-03-28T21:12:22.472Z,99.90
2023-03-28T21:15:11.337Z,99.90
2023-03-28T21:17:59.455Z,99.90
2023-03-28T21:20:47.583Z,99.90
2023-03-28T21:23:37.245Z,99.90
2023-03-28T21:26:26.790Z,99.90
2023-03-28T21:29:14.840Z,99.90
2023-03-28T21:32:02.900Z,99.90
2023-03-28T21:34:51.200Z,99.90
2023-03-28T21:37:39.222Z,99.90
2023-03-28T21:40:27.293Z,99.90
2023-03-28T21:43:17.157Z,99.90
2023-03-28T21:46:06.428Z,99.90
2023-03-28T21:48:55.155Z,99.90
2023-03-28T21:51:43.236Z,99.90
2023-03-28T21:54:31.245Z,99.90
2023-03-28T21:57:19.362Z,99.90
2023-03-28T22:00:14.924Z,99.90
2023-03-28T22:03:03.166Z,99.90
2023-03-28T22:05:51.865Z,99.90
2023-03-28T22:08:40.113Z,99.90
2023-03-28T22:11:28.517Z,99.90
2023-03-28T22:14:16.659Z,99.90
2023-03-28T22:17:07.250Z,99.90
2023-03-28T22:19:55.280Z,99.90
2023-03-28T22:22:44.805Z,99.90
2023-03-28T22:25:34.888Z,99.90
2023-03-28T22:28:24.695Z,99.90
2023-03-28T22:31:13.374Z,99.90
2023-03-28T22:34:02.808Z,99.90
2023-03-28T22:36:50.858Z,99.90
2023-03-28T22:39:40.223Z,99.90
2023-03-28T22:42:28.680Z,99.90
2023-03-28T22:45:16.782Z,99.90
2023-03-28T22:48:14.207Z,99.90
2023-03-28T22:51:03.834Z,99.90
2023-03-28T22:53:52.995Z,99.90
2023-03-28T22:56:41.776Z,99.90
2023-03-28T22:59:30.203Z,99.90
2023-03-28T23:02:18.246Z,99.90
2023-03-28T23:05:07.815Z,99.90
2023-03-28T23:07:57.854Z,99.90
2023-03-28T23:10:45.966Z,99.90
2023-03-28T23:13:34.087Z,99.90
2023-03-28T23:16:22.169Z,99.90
2023-03-28T23:19:10.330Z,99.90
2023-03-28T23:21:59.349Z,99.90
2023-03-28T23:24:50.543Z,99.90
2023-03-28T23:27:38.752Z,99.90
2023-03-28T23:30:27.096Z,99.90
2023-03-28T23:33:15.135Z,99.90
2023-03-28T23:36:03.236Z,99.90
2023-03-28T23:38:51.264Z,99.90
2023-03-28T23:41:40.709Z,99.90
2023-03-28T23:44:28.964Z,99.90
2023-03-28T23:47:17.040Z,99.90
2023-03-28T23:50:05.375Z,99.90
2023-03-28T23:52:53.660Z,99.90
2023-03-28T23:55:41.707Z,99.90
2023-03-28T23:58:31.153Z,99.90
